Time;durP1;ratioP1;P1;durP2;ratioP2;P2;SDS_P1;SDS_P2;PMS_P1;PMS_P2;Temp;Humidity;BMP_temperature;BMP_pressure;BME280_temperature;BME280_humidity;BME280_pressure;Samples;Min_cycle;Max_cycle;Signal;HPM_P1;HPM_P2
2022/05/02 04:01:24;;;;;;;3.20;1.00;;;;;;;12.13;74.40;100474.19;6465001;27;19997;31
2022/05/02 05:02:53;;;;;;;1.00;1.00;;;;;;;13.06;68.53;100506.97;6633088;26;20362;-87
2022/05/02 05:27:09;;;;;;;1.23;1.15;;;;;;;13.67;65.15;100509.25;6629915;26;20087;-87
2022/05/02 05:30:13;;;;;;;0.95;0.95;;;;;;;13.83;64.42;100509.81;6604750;26;32172;-87
2022/05/02 05:41:40;;;;;;;0.73;0.73;;;;;;;13.96;61.37;100503.66;6630452;26;20079;-87
2022/05/02 05:45:01;;;;;;;0.45;0.45;;;;;;;14.12;60.31;100499.81;6628906;26;35106;-87
2022/05/02 05:48:28;;;;;;;0.37;0.37;;;;;;;14.23;59.57;100507.38;6606724;26;32444;-87
2022/05/02 05:59:47;;;;;;;0.45;0.45;;;;;;;14.42;61.05;100497.72;6588502;26;20423;-89
2022/05/02 06:03:05;;;;;;;0.30;0.30;;;;;;;14.67;60.56;100494.53;6596706;26;33608;-87
2022/05/02 06:10:10;;;;;;;1.08;1.08;;;;;;;14.81;60.44;100498.97;6599782;26;20060;-88
2022/05/02 06:20:39;;;;;;;0.20;0.20;;;;;;;15.05;59.97;100505.72;6600050;26;33697;-87
2022/05/02 06:23:46;;;;;;;0.20;0.20;;;;;;;15.20;59.33;100509.09;6578604;26;33256;-87
2022/05/02 06:43:44;;;;;;;0.60;0.60;;;;;;;16.37;52.02;100519.59;6600526;26;20091;-87
2022/05/02 06:55:31;;;;;;;0.15;0.15;;;;;;;16.97;49.33;100521.09;6525185;27;34531;-87
2022/05/02 06:59:05;;;;;;;0.50;0.50;;;;;;;17.04;48.81;100518.34;6535415;27;33105;-88
2022/05/02 07:02:34;;;;;;;0.30;0.30;;;;;;;17.00;47.50;100519.84;6575015;27;34174;-88
2022/05/02 07:05:56;;;;;;;0.45;0.45;;;;;;;17.19;47.74;100521.59;6554322;27;33420;-88
2022/05/02 07:09:04;;;;;;;0.30;0.30;;;;;;;17.32;47.83;100523.41;6541139;27;33744;-88
2022/05/02 07:16:22;;;;;;;0.25;0.25;;;;;;;17.48;48.53;100524.78;6609502;26;20076;-89
2022/05/02 07:19:37;;;;;;;0.10;0.10;;;;;;;17.68;47.41;100530.09;6585596;27;33873;-87
2022/05/02 07:23:01;;;;;;;0.90;0.75;;;;;;;17.87;48.22;100528.28;6584558;27;32922;-87
2022/05/02 07:26:13;;;;;;;0.52;0.52;;;;;;;18.00;47.35;100524.63;6586268;27;32383;-87
2022/05/02 07:29:17;;;;;;;0.10;0.10;;;;;;;18.13;48.38;100522.63;6585366;27;34221;-87
2022/05/02 07:32:22;;;;;;;0.10;0.10;;;;;;;18.23;47.29;100524.00;6586631;27;33299;-88
2022/05/02 07:35:24;;;;;;;0.25;0.25;;;;;;;18.12;47.18;100517.38;6588343;27;32508;-89
2022/05/02 07:38:33;;;;;;;0.22;0.22;;;;;;;18.29;47.72;100523.09;6584328;27;32583;-87
2022/05/02 07:41:37;;;;;;;0.10;0.10;;;;;;;18.35;46.76;100514.00;6606534;27;33679;-88
2022/05/02 07:44:44;;;;;;;0.10;0.10;;;;;;;18.40;47.65;100513.31;6587663;27;34047;-89
2022/05/02 07:47:48;;;;;;;0.10;0.10;;;;;;;18.47;47.51;100508.66;6606180;27;34337;-88
2022/05/02 07:50:52;;;;;;;0.43;0.20;;;;;;;18.67;47.32;100516.59;6587522;27;34529;-88
2022/05/02 07:53:57;;;;;;;0.10;0.10;;;;;;;18.61;47.20;100512.06;6609636;27;34281;-89
2022/05/02 08:00:45;;;;;;;0.15;0.15;;;;;;;18.79;45.56;100509.34;6501087;27;33222;-89
2022/05/02 08:16:19;;;;;;;;;;;;;;;19.20;45.75;100514.06;6569568;27;20072;-90
2022/05/02 08:19:43;;;;;;;0.10;0.10;;;;;;;19.33;46.23;100506.72;6608207;26;34779;-90
2022/05/02 08:31:45;;;;;;;0.10;0.10;;;;;;;19.13;43.98;100502.41;6490793;27;34045;-89
2022/05/02 08:35:03;;;;;;;0.10;0.10;;;;;;;19.09;46.18;100495.72;6505288;27;34852;-88
2022/05/02 08:38:17;;;;;;;0.10;0.10;;;;;;;19.11;45.89;100493.59;6615489;26;34546;-88
2022/05/02 08:41:30;;;;;;;0.20;0.20;;;;;;;19.32;46.68;100489.53;6604463;26;34622;-88
2022/05/02 08:52:31;;;;;;;0.10;0.10;;;;;;;19.42;44.30;100489.81;6628287;26;35175;-87
2022/05/02 08:56:04;;;;;;;0.10;0.10;;;;;;;19.26;44.00;100491.28;6609559;26;32771;-88
2022/05/02 08:59:51;;;;;;;0.62;0.62;;;;;;;19.37;43.81;100483.38;6608205;26;33116;-87
2022/05/02 09:15:36;;;;;;;0.20;0.20;;;;;;;19.42;42.36;100480.75;6484074;27;34024;-88
2022/05/02 09:19:17;;;;;;;0.20;0.20;;;;;;;19.60;43.80;100482.59;6508471;26;33109;-88
2022/05/02 09:22:42;;;;;;;0.10;0.10;;;;;;;19.52;43.81;100475.56;6609208;26;33987;-88
2022/05/02 09:26:07;;;;;;;0.10;0.10;;;;;;;19.51;43.48;100476.66;6611013;26;32660;-88
2022/05/02 09:33:22;;;;;;;0.10;0.10;;;;;;;19.66;43.46;100470.75;6615811;26;32631;-88
2022/05/02 09:36:30;;;;;;;0.00;0.00;;;;;;;19.74;43.28;100459.47;6616279;26;33613;-88
2022/05/02 09:51:21;;;;;;;0.10;0.10;;;;;;;19.82;44.25;100456.38;6579644;26;34494;-87
2022/05/02 09:58:29;;;;;;;0.10;0.10;;;;;;;19.38;42.87;100452.25;6627483;26;34655;-88
2022/05/02 10:01:33;;;;;;;;;;;;;;;19.41;43.72;100446.34;6629703;26;35322;-88
2022/05/02 10:04:59;;;;;;;0.20;0.20;;;;;;;19.47;45.52;100448.13;6639047;26;32962;-88
2022/05/02 10:08:36;;;;;;;0.25;0.25;;;;;;;19.42;44.48;100446.13;6635925;26;34430;-88
2022/05/02 10:22:42;;;;;;;0.62;0.50;;;;;;;21.06;40.88;100423.19;6537059;27;1508371;-87
2022/05/02 10:26:08;;;;;;;0.00;0.00;;;;;;;21.06;40.88;100423.19;6564841;27;33086;-87
2022/05/02 10:29:36;;;;;;;0.10;0.10;;;;;;;20.81;39.92;100418.06;6587132;27;33906;-87
2022/05/02 10:32:50;;;;;;;0.00;0.00;;;;;;;21.09;38.91;100412.81;6588603;27;33352;-88
2022/05/02 10:35:55;;;;;;;0.10;0.10;;;;;;;21.08;38.86;100411.16;6568012;27;33538;-88
2022/05/02 10:39:03;;;;;;;0.00;0.00;;;;;;;21.58;38.24;100413.13;6585351;27;34455;-88
2022/05/02 10:42:10;;;;;;;0.10;0.10;;;;;;;21.96;39.21;100402.19;6585587;27;33810;-88
2022/05/02 10:45:14;;;;;;;0.00;0.00;;;;;;;21.89;39.09;100401.56;6583626;27;33757;-88
2022/05/02 10:48:17;;;;;;;0.20;0.20;;;;;;;22.56;36.40;100395.06;6578509;27;33490;-88
2022/05/02 10:51:32;;;;;;;0.20;0.20;;;;;;;22.84;35.33;100393.16;6557825;27;33386;-88
2022/05/02 10:54:46;;;;;;;0.10;0.10;;;;;;;23.50;33.65;100388.28;6577184;27;34005;-88
2022/05/02 10:57:54;;;;;;;0.00;0.00;;;;;;;23.81;33.81;100394.03;6560424;27;32185;-88
2022/05/02 11:01:07;;;;;;;0.00;0.00;;;;;;;24.31;33.66;100384.38;6565348;27;33693;-88
2022/05/02 11:04:32;;;;;;;0.00;0.00;;;;;;;25.27;31.82;100384.91;6561040;27;33421;-88
2022/05/02 11:07:55;;;;;;;0.10;0.10;;;;;;;25.69;29.21;100384.62;6594002;27;34081;-88
2022/05/02 11:11:03;;;;;;;0.10;0.10;;;;;;;26.72;28.94;100378.78;6579800;27;35331;-89
2022/05/02 11:14:29;;;;;;;0.00;0.00;;;;;;;27.07;27.09;100380.47;6496366;26;32325;-88
2022/05/02 11:21:28;;;;;;;0.47;0.47;;;;;;;28.48;25.45;100365.50;6582043;27;20041;-88
2022/05/02 11:24:38;;;;;;;0.10;0.10;;;;;;;29.02;23.38;100365.28;6529826;26;34270;-88
2022/05/02 11:36:11;;;;;;;0.05;0.05;;;;;;;29.40;23.83;100346.66;6555412;26;20079;-88
2022/05/02 11:39:32;;;;;;;0.20;0.17;;;;;;;28.98;23.49;100359.50;6461850;27;34264;-88
2022/05/02 11:42:42;;;;;;;0.37;0.30;;;;;;;27.73;24.09;100355.03;6496209;26;31904;-87
2022/05/02 11:57:35;;;;;;;0.10;0.10;;;;;;;27.04;25.58;100336.81;6556744;27;34702;-88
2022/05/02 12:00:50;;;;;;;0.13;0.13;;;;;;;26.52;25.99;100338.28;6571539;27;33441;-87
2022/05/02 12:04:15;;;;;;;0.22;0.13;;;;;;;26.54;26.13;100336.91;6571114;27;33863;-87
2022/05/02 12:07:28;;;;;;;0.22;0.22;;;;;;;26.28;26.75;100336.19;6514708;27;33468;-88
2022/05/02 12:10:36;;;;;;;0.43;0.43;;;;;;;25.82;28.49;100328.06;6501193;26;33164;-87
2022/05/02 12:13:47;;;;;;;0.37;0.20;;;;;;;25.90;28.96;100326.69;6560578;26;33545;-87
2022/05/02 12:17:10;;;;;;;0.10;0.10;;;;;;;26.33;25.61;100316.00;6570905;27;34961;-87
2022/05/02 12:20:29;;;;;;;0.10;0.10;;;;;;;27.50;24.17;100314.34;6572879;27;34107;-86
2022/05/02 12:23:35;;;;;;;0.10;0.10;;;;;;;28.49;23.59;100308.19;6527196;27;31679;-87
2022/05/02 12:26:45;;;;;;;0.22;0.22;;;;;;;27.96;24.69;100306.38;6577370;27;33706;-87
2022/05/02 12:30:00;;;;;;;0.08;0.08;;;;;;;28.83;24.57;100301.56;6553430;27;33119;-88
2022/05/02 12:33:08;;;;;;;0.00;0.00;;;;;;;31.97;20.76;100293.22;6533816;27;32128;-88
2022/05/02 12:36:16;;;;;;;0.10;0.10;;;;;;;34.02;17.45;100290.00;6557439;27;33795;-88
2022/05/02 12:39:35;;;;;;;0.00;0.00;;;;;;;34.73;17.13;100285.59;6532167;26;33481;-88
2022/05/02 12:42:54;;;;;;;0.00;0.00;;;;;;;34.83;16.68;100278.72;6490953;26;34028;-88
2022/05/02 12:50:22;;;;;;;0.10;0.10;;;;;;;33.93;17.49;100274.44;6522692;26;20097;-88
2022/05/02 13:00:30;;;;;;;0.40;0.17;;;;;;;31.72;19.01;100257.75;6544225;26;32274;-89
2022/05/02 13:03:37;;;;;;;0.30;0.30;;;;;;;30.41;19.96;100261.63;6517695;26;33300;-87
2022/05/02 13:10:44;;;;;;;0.10;0.10;;;;;;;29.31;23.17;100248.62;6578049;27;20054;-87
2022/05/02 13:13:50;;;;;;;0.22;0.20;;;;;;;27.92;24.95;100238.06;6495198;26;32267;-87
2022/05/02 13:16:53;;;;;;;0.10;0.10;;;;;;;26.88;24.81;100247.69;6494295;26;33316;-88
2022/05/02 13:23:20;;;;;;;0.43;0.43;;;;;;;25.46;25.73;100241.84;6606102;26;32419;-87
2022/05/02 13:26:40;;;;;;;0.20;0.20;;;;;;;25.02;26.70;100240.53;6506340;27;32326;-87
2022/05/02 13:30:00;;;;;;;0.25;0.25;;;;;;;25.38;27.68;100232.22;6536533;27;35116;-87
2022/05/02 13:33:10;;;;;;;0.20;0.20;;;;;;;27.05;24.53;100225.16;6579286;27;33601;-87
2022/05/02 13:36:13;;;;;;;0.35;0.35;;;;;;;27.98;24.15;100228.56;6575682;27;33825;-87
2022/05/02 13:39:22;;;;;;;0.40;0.30;;;;;;;28.64;22.96;100224.03;6572519;27;34384;-87
2022/05/02 13:42:38;;;;;;;0.15;0.15;;;;;;;29.55;22.82;100220.72;6556417;27;32505;-87
2022/05/02 13:46:02;;;;;;;0.20;0.20;;;;;;;28.84;22.34;100217.28;6559193;27;33752;-87
2022/05/02 13:49:29;;;;;;;0.17;0.17;;;;;;;30.82;21.62;100216.22;6517225;27;32588;-87
2022/05/02 13:53:01;;;;;;;0.15;0.15;;;;;;;32.47;19.20;100212.00;6526534;27;34607;-87
2022/05/02 13:56:39;;;;;;;0.40;0.40;;;;;;;34.87;17.30;100213.37;6532599;27;33827;-88
2022/05/02 13:59:53;;;;;;;0.30;0.17;;;;;;;35.59;16.63;100210.22;6557856;27;32231;-87
2022/05/02 14:03:17;;;;;;;0.60;0.35;;;;;;;35.63;16.12;100200.78;6541690;26;32849;-88
2022/05/02 14:06:26;;;;;;;0.00;0.00;;;;;;;34.87;16.92;100199.38;6522119;27;34359;-88
2022/05/02 14:09:44;;;;;;;0.55;0.30;;;;;;;33.28;18.03;100198.38;6522611;27;33662;-88
2022/05/02 14:12:49;;;;;;;1.55;0.30;;;;;;;31.40;19.47;100193.78;6524387;27;33548;-89
2022/05/02 14:53:09;;;;;;;0.20;0.10;;;;;;;28.19;21.68;100176.50;6579100;27;20080;-86
2022/05/02 14:56:14;;;;;;;0.10;0.10;;;;;;;27.10;22.97;100189.19;6600201;27;34265;-87
2022/05/02 14:59:22;;;;;;;0.50;0.50;;;;;;;26.26;23.76;100197.63;6584560;26;33774;-88
2022/05/02 15:02:28;;;;;;;0.35;0.30;;;;;;;25.46;25.39;100212.34;6584251;27;32490;-86
2022/05/02 15:05:35;;;;;;;0.17;0.17;;;;;;;24.52;27.65;100211.91;6584983;27;32220;-86
2022/05/02 15:08:57;;;;;;;0.40;0.40;;;;;;;23.82;29.24;100224.41;6604622;27;34610;-87
2022/05/02 15:12:09;;;;;;;0.28;0.28;;;;;;;23.06;31.58;100214.63;6583959;27;32872;-87
2022/05/02 15:15:25;;;;;;;0.40;0.40;;;;;;;22.17;32.08;100230.59;6584060;27;31674;-87
2022/05/02 15:22:16;;;;;;;0.15;0.15;;;;;;;21.28;33.94;100234.34;6605829;27;33974;-87
2022/05/02 15:25:48;;;;;;;0.90;0.55;;;;;;;21.02;35.37;100224.94;6603030;27;32411;-87
2022/05/02 15:36:39;;;;;;;0.52;0.52;;;;;;;20.75;36.67;100223.97;6610642;26;36261;-86
2022/05/02 15:39:26;;;;;;;0.43;0.43;;;;;;;20.30;38.63;100209.25;6588404;26;32665;-89
2022/05/02 15:42:29;;;;;;;0.50;0.50;;;;;;;20.45;38.38;100224.25;6613590;27;33869;-88
2022/05/02 15:45:36;;;;;;;0.28;0.28;;;;;;;19.99;39.32;100210.56;6550013;26;32402;-88
2022/05/02 15:48:39;;;;;;;0.40;0.40;;;;;;;20.03;39.33;100214.47;6553710;27;33830;-89
